YCAL weather

Castlemaine Airport
Victoria, Australia

Public forecast

Using degrees Celsius for public forecast. Weather courtesy of forecast.io.

METAR (pilot weather report)

Closest report is Melbourne International Airport, 45.7 nm (84.7 km) SE. Retrieved 2019/04/21 15:30 UTC (14 minutes ago):

YMML 211530Z 22008KT 9999 BKN020 BKN034 15/09 Q1023

TAF (pilot weather forecast)

Closest forecast is Melbourne International Airport, 45.7 nm (84.7 km) SE. Retrieved 2019/04/21 12:00 UTC (4 hours ago):

TAF YMML 211112Z 2112/2218 24013KT 9999 -SHRA SCT015 BKN020 FM211600 19010KT 9999 -SHRA SCT010 BKN015 BECMG 2121/2123 24010KT 9999 -SHRA SCT018 BKN025 FM220200 17010KT 9999 BKN030 FM221400 22006KT 9999 SCT025 INTER 2112/2116 5000 SHRA BKN012 TEMPO 2116/2123 5000 SHRA BKN010